Time;durP1;ratioP1;P1;durP2;ratioP2;P2;SDS_P1;SDS_P2;PMS_P1;PMS_P2;Temp;Humidity;BMP_temperature;BMP_pressure;BME280_temperature;BME280_humidity;BME280_pressure;Samples;Min_cycle;Max_cycle;Signal;HPM_P1;HPM_P2
2023/01/24 00:00:43;;;;;;;2.50;2.30;;;2.50;99.90;;;;;;5023930;28;20252;-61
2023/01/24 00:03:12;;;;;;;2.15;1.67;;;2.40;99.90;;;;;;5023661;28;20704;-62
2023/01/24 00:05:41;;;;;;;2.50;2.30;;;2.40;99.90;;;;;;5026343;28;20227;-61
2023/01/24 00:08:09;;;;;;;2.63;2.42;;;2.40;99.90;;;;;;5024878;28;20200;-61
2023/01/24 00:10:37;;;;;;;2.67;2.08;;;2.30;99.90;;;;;;5026290;28;20203;-61
2023/01/24 00:13:05;;;;;;;2.95;2.65;;;2.20;99.90;;;;;;5032865;28;20284;-62
2023/01/24 00:15:33;;;;;;;2.95;2.63;;;2.30;99.90;;;;;;5032152;28;20587;-62
2023/01/24 00:18:01;;;;;;;2.25;2.10;;;2.20;99.90;;;;;;5026685;28;20617;-62
2023/01/24 00:20:31;;;;;;;2.47;2.28;;;2.10;99.90;;;;;;5027513;28;20281;-62
2023/01/24 00:22:58;;;;;;;3.40;2.58;;;2.10;99.90;;;;;;5026425;28;20228;-62
2023/01/24 00:25:26;;;;;;;1.60;1.33;;;2.10;99.90;;;;;;5031072;28;20215;-62
2023/01/24 00:27:54;;;;;;;2.58;2.15;;;2.10;99.90;;;;;;5031769;28;20222;-62
2023/01/24 00:30:22;;;;;;;2.45;2.25;;;2.00;99.90;;;;;;5029433;28;20208;-62
2023/01/24 00:32:50;;;;;;;2.00;1.80;;;2.00;99.90;;;;;;5032006;28;20231;-62
2023/01/24 00:35:18;;;;;;;2.75;2.22;;;2.00;99.90;;;;;;5033238;28;20203;-62
2023/01/24 00:37:47;;;;;;;2.35;2.15;;;1.90;99.90;;;;;;5035557;28;20236;-62
2023/01/24 00:40:16;;;;;;;2.45;2.05;;;1.90;99.90;;;;;;5032679;28;20670;-62
2023/01/24 00:42:44;;;;;;;1.90;1.70;;;1.80;99.90;;;;;;5033889;28;20207;-63
2023/01/24 00:45:11;;;;;;;4.20;2.88;;;1.80;99.90;;;;;;5034547;28;20227;-63
2023/01/24 00:47:39;;;;;;;1.45;1.35;;;1.80;99.90;;;;;;5028828;28;20299;-62
2023/01/24 00:50:08;;;;;;;2.08;1.90;;;1.80;99.90;;;;;;5028648;28;20213;-61
2023/01/24 00:52:36;;;;;;;2.85;2.40;;;2.00;99.90;;;;;;5027954;28;20217;-61
2023/01/24 00:55:06;;;;;;;3.83;2.35;;;2.10;99.90;;;;;;5029391;28;20307;-61
2023/01/24 00:57:34;;;;;;;2.10;1.80;;;2.10;99.90;;;;;;5031733;28;20228;-61
2023/01/24 01:00:02;;;;;;;2.55;1.95;;;2.20;99.90;;;;;;5031797;28;20210;-61
2023/01/24 01:02:29;;;;;;;1.73;1.63;;;2.20;99.90;;;;;;5032198;28;20224;-61
2023/01/24 01:04:57;;;;;;;8.57;2.40;;;2.20;99.90;;;;;;5032813;28;20275;-61
2023/01/24 01:07:25;;;;;;;3.05;2.05;;;2.20;99.90;;;;;;5035593;28;20315;-61
2023/01/24 01:09:53;;;;;;;3.30;2.50;;;2.20;99.90;;;;;;5031518;28;20296;-62
2023/01/24 01:12:22;;;;;;;3.70;3.10;;;2.00;99.90;;;;;;5029221;28;20219;-61
2023/01/24 01:14:50;;;;;;;3.00;2.72;;;1.90;99.90;;;;;;5031455;28;20229;-61
2023/01/24 01:17:18;;;;;;;1.95;1.50;;;1.80;99.90;;;;;;5028308;28;20235;-61
2023/01/24 01:19:46;;;;;;;3.75;2.67;;;1.80;99.90;;;;;;5033206;28;20284;-61
2023/01/24 01:22:14;;;;;;;3.45;3.15;;;1.80;99.90;;;;;;5029738;28;20930;-62
2023/01/24 01:24:42;;;;;;;1.80;1.70;;;1.80;99.90;;;;;;5014018;28;20305;-62
2023/01/24 01:27:09;;;;;;;2.35;1.92;;;1.80;99.90;;;;;;5018788;28;20220;-62
2023/01/24 01:29:39;;;;;;;4.05;2.38;;;1.80;99.90;;;;;;5024149;28;20204;-62
2023/01/24 01:32:07;;;;;;;3.13;1.88;;;1.70;99.90;;;;;;5027627;28;20201;-62
2023/01/24 01:34:35;;;;;;;3.58;2.78;;;1.90;99.90;;;;;;5028157;28;20201;-62
2023/01/24 01:37:03;;;;;;;1.85;1.75;;;2.10;99.90;;;;;;5046451;22;20736;-63
2023/01/24 01:39:31;;;;;;;4.15;2.80;;;2.00;99.90;;;;;;4997210;28;20229;-64
2023/01/24 01:41:58;;;;;;;3.90;2.88;;;2.00;99.90;;;;;;5013041;28;20584;-65
2023/01/24 01:44:43;;;;;;;3.05;2.75;;;2.10;99.90;;;;;;5013579;28;20308;-64
2023/01/24 01:47:18;;;;;;;2.10;1.85;;;2.00;99.90;;;;;;5013576;28;20233;-66
2023/01/24 01:49:52;;;;;;;2.70;2.03;;;2.10;99.90;;;;;;5013292;28;20205;-65
2023/01/24 01:52:22;;;;;;;4.00;2.58;;;2.30;99.90;;;;;;5013780;28;20648;-64
2023/01/24 01:54:54;;;;;;;3.47;2.20;;;2.20;99.90;;;;;;5013771;28;20205;-65
2023/01/24 01:57:25;;;;;;;2.65;2.00;;;2.20;99.90;;;;;;5000570;28;20222;-65
2023/01/24 01:59:58;;;;;;;3.47;2.80;;;2.10;99.90;;;;;;4993322;28;20305;-65
2023/01/24 02:02:29;;;;;;;1.60;1.50;;;2.00;99.90;;;;;;4993600;28;20210;-65
2023/01/24 02:05:00;;;;;;;2.50;2.20;;;2.00;99.90;;;;;;4993990;28;20232;-64
2023/01/24 02:07:32;;;;;;;2.70;2.50;;;2.00;99.90;;;;;;4993774;28;20249;-66
2023/01/24 02:10:01;;;;;;;1.90;1.70;;;1.90;99.90;;;;;;4992959;28;20228;-65
2023/01/24 02:12:32;;;;;;;2.25;2.05;;;1.70;99.90;;;;;;4993581;28;20667;-65
2023/01/24 02:17:51;;;;;;;2.45;1.90;;;1.80;99.90;;;;;;5010223;28;20251;-65
2023/01/24 02:20:25;;;;;;;2.88;1.90;;;2.00;99.90;;;;;;5012437;28;20289;-65
2023/01/24 02:23:04;;;;;;;3.67;1.90;;;1.80;99.90;;;;;;5013372;28;20276;-65
2023/01/24 02:25:38;;;;;;;4.97;3.13;;;1.70;99.90;;;;;;5013486;28;20233;-65
2023/01/24 02:28:09;;;;;;;1.90;1.70;;;1.80;99.90;;;;;;5014955;28;20288;-65
2023/01/24 02:30:39;;;;;;;2.47;1.50;;;1.80;99.90;;;;;;5005684;28;20206;-64
2023/01/24 02:33:13;;;;;;;2.30;1.50;;;1.80;99.90;;;;;;4992861;28;20203;-64
2023/01/24 02:35:41;;;;;;;1.52;1.40;;;1.90;99.90;;;;;;4973662;28;20277;-63
2023/01/24 02:38:16;;;;;;;3.83;2.00;;;1.90;99.90;;;;;;4998031;28;20325;-62
2023/01/24 02:40:45;;;;;;;5.88;2.40;;;2.20;99.90;;;;;;4992568;28;20255;-63
2023/01/24 02:43:17;;;;;;;2.22;1.92;;;2.10;99.90;;;;;;4993001;28;20573;-63
2023/01/24 02:45:45;;;;;;;3.40;2.20;;;2.00;99.90;;;;;;4993286;28;20288;-63
2023/01/24 02:48:12;;;;;;;1.92;1.77;;;1.90;99.90;;;;;;4992831;28;20241;-64
2023/01/24 02:53:32;;;;;;;1.80;1.70;;;1.90;99.90;;;;;;5012734;28;20193;-62
2023/01/24 02:58:48;;;;;;;3.47;2.40;;;1.90;99.90;;;;;;5012865;28;20781;-63
2023/01/24 03:01:17;;;;;;;2.83;2.13;;;1.90;99.90;;;;;;5005905;28;20276;-64
2023/01/24 03:03:46;;;;;;;2.95;2.20;;;1.90;99.90;;;;;;4993127;28;20530;-63
2023/01/24 03:06:16;;;;;;;2.45;2.25;;;1.90;99.90;;;;;;4992538;28;20313;-64
2023/01/24 03:08:44;;;;;;;4.35;3.42;;;1.90;99.90;;;;;;4992916;28;20236;-64
2023/01/24 03:11:12;;;;;;;2.38;2.17;;;1.80;99.90;;;;;;4998073;28;20683;-65
2023/01/24 03:35:53;;;;;;;2.58;2.10;;;2.20;99.90;;;;;;4992708;28;20297;-65
2023/01/24 03:41:08;;;;;;;2.45;2.05;;;2.20;99.90;;;;;;4991677;28;20206;-64
2023/01/24 03:43:36;;;;;;;3.90;2.03;;;2.20;99.90;;;;;;4992139;28;20233;-64
2023/01/24 03:46:04;;;;;;;6.03;2.75;;;2.30;99.90;;;;;;4991896;28;20253;-64
2023/01/24 03:48:36;;;;;;;3.55;2.63;;;2.10;99.90;;;;;;4992051;28;20214;-64
2023/01/24 03:53:50;;;;;;;3.83;2.47;;;1.90;99.90;;;;;;4978149;28;20520;-64
2023/01/24 03:56:18;;;;;;;3.72;2.38;;;2.10;99.90;;;;;;4991801;28;20257;-64
2023/01/24 03:58:46;;;;;;;4.53;2.97;;;2.00;99.90;;;;;;4992047;28;20305;-65
2023/01/24 04:01:14;;;;;;;3.15;2.65;;;2.00;99.90;;;;;;4991316;28;20210;-65
2023/01/24 04:03:43;;;;;;;5.28;3.05;;;1.90;99.90;;;;;;4991679;28;20197;-64
2023/01/24 04:06:11;;;;;;;3.05;2.67;;;1.90;99.90;;;;;;4991932;28;20218;-64
2023/01/24 04:08:39;;;;;;;3.30;2.85;;;1.90;99.90;;;;;;4991710;28;20312;-65
2023/01/24 04:11:07;;;;;;;3.55;2.10;;;1.90;99.90;;;;;;4991095;28;20212;-65
2023/01/24 04:13:34;;;;;;;3.00;2.00;;;2.10;99.90;;;;;;4994493;28;20242;-66
2023/01/24 04:16:02;;;;;;;5.38;3.75;;;2.00;99.90;;;;;;4991793;28;20269;-63
2023/01/24 04:18:30;;;;;;;4.53;2.55;;;2.00;99.90;;;;;;4991673;28;20306;-63
2023/01/24 04:21:01;;;;;;;2.08;1.88;;;2.00;99.90;;;;;;4991353;28;20277;-63
2023/01/24 04:23:29;;;;;;;3.38;2.35;;;2.00;99.90;;;;;;4991749;28;20194;-63
2023/01/24 04:25:59;;;;;;;6.40;3.33;;;2.00;99.90;;;;;;4991892;28;20222;-63
2023/01/24 04:28:29;;;;;;;2.63;2.33;;;2.10;99.90;;;;;;4991747;28;20334;-63
2023/01/24 04:30:58;;;;;;;5.25;4.75;;;2.10;99.90;;;;;;4992297;28;20615;-64
2023/01/24 04:33:26;;;;;;;4.85;3.03;;;2.20;99.90;;;;;;4991228;28;20202;-63
2023/01/24 04:35:59;;;;;;;4.03;3.15;;;2.20;99.90;;;;;;4991838;28;20634;-64
2023/01/24 04:38:27;;;;;;;2.65;2.35;;;2.20;99.90;;;;;;4991478;28;20333;-64
2023/01/24 04:40:59;;;;;;;2.85;2.42;;;2.10;99.90;;;;;;4991132;28;20652;-63
2023/01/24 04:43:27;;;;;;;5.68;3.05;;;2.10;99.90;;;;;;4991503;28;20200;-64
2023/01/24 04:45:58;;;;;;;3.50;2.40;;;2.10;99.90;;;;;;4991719;28;20297;-64
2023/01/24 04:48:26;;;;;;;3.38;2.28;;;2.10;99.90;;;;;;4971832;28;20659;-63
2023/01/24 04:51:00;;;;;;;4.50;2.45;;;2.10;99.90;;;;;;4971574;28;20660;-63
2023/01/24 04:53:29;;;;;;;2.13;1.90;;;2.10;99.90;;;;;;4972073;28;20203;-63
2023/01/24 04:56:00;;;;;;;2.75;2.55;;;2.20;99.90;;;;;;4972240;28;20303;-63
2023/01/24 04:58:28;;;;;;;2.15;1.70;;;2.20;99.90;;;;;;4974738;28;20222;-64
2023/01/24 05:00:56;;;;;;;2.95;2.60;;;2.20;99.90;;;;;;4977836;28;20209;-63
2023/01/24 05:03:26;;;;;;;4.35;3.63;;;2.20;99.90;;;;;;4994886;28;20208;-64
2023/01/24 05:05:54;;;;;;;4.43;2.42;;;2.30;99.90;;;;;;4995235;28;20293;-63
2023/01/24 05:08:24;;;;;;;3.22;2.13;;;2.40;99.90;;;;;;4995052;28;20317;-65
2023/01/24 05:10:51;;;;;;;2.40;2.20;;;2.30;99.90;;;;;;4994412;28;20619;-64
2023/01/24 05:13:19;;;;;;;3.17;2.70;;;2.30;99.90;;;;;;4994702;28;20549;-64
2023/01/24 05:15:48;;;;;;;2.13;2.03;;;2.40;99.90;;;;;;4995087;28;20295;-64
2023/01/24 05:18:16;;;;;;;3.28;2.45;;;2.30;99.90;;;;;;4994664;28;20303;-63
2023/01/24 05:20:43;;;;;;;3.70;2.50;;;2.20;99.90;;;;;;4994111;28;20633;-65
2023/01/24 05:23:11;;;;;;;5.07;2.67;;;2.20;99.90;;;;;;4994941;28;20201;-64
2023/01/24 05:25:40;;;;;;;1.60;1.50;;;2.20;99.90;;;;;;4995750;28;21035;-65
2023/01/24 05:28:08;;;;;;;3.63;2.78;;;2.40;99.90;;;;;;5000800;28;20300;-65
2023/01/24 05:30:36;;;;;;;3.60;2.47;;;2.30;99.90;;;;;;5002108;28;20281;-64
2023/01/24 05:33:04;;;;;;;3.33;2.17;;;2.40;99.90;;;;;;4989878;28;20273;-64
2023/01/24 05:35:32;;;;;;;3.20;2.63;;;2.40;99.90;;;;;;4994697;28;20202;-64
2023/01/24 05:38:00;;;;;;;6.03;3.10;;;2.30;99.90;;;;;;4994023;28;20317;-65
2023/01/24 05:40:28;;;;;;;3.03;2.58;;;2.50;99.90;;;;;;4990716;28;20659;-65
2023/01/24 05:42:57;;;;;;;2.78;2.22;;;2.50;99.90;;;;;;4982338;28;20290;-64
2023/01/24 05:45:25;;;;;;;3.50;2.50;;;2.40;99.90;;;;;;4981683;28;20715;-63
2023/01/24 05:47:53;;;;;;;3.42;3.13;;;2.40;99.90;;;;;;4992116;28;20243;-65
2023/01/24 05:50:21;;;;;;;2.70;2.45;;;2.30;99.90;;;;;;4988928;28;20214;-65
2023/01/24 05:52:49;;;;;;;2.70;1.98;;;2.30;99.90;;;;;;4992299;28;20198;-65
2023/01/24 05:55:16;;;;;;;4.35;3.13;;;2.30;99.90;;;;;;4992665;28;20579;-65
2023/01/24 05:57:44;;;;;;;4.57;2.08;;;2.20;99.90;;;;;;4993278;28;20242;-65
2023/01/24 06:00:15;;;;;;;3.15;2.85;;;2.20;99.90;;;;;;4991607;28;20213;-65
2023/01/24 06:02:42;;;;;;;3.00;2.53;;;2.20;99.90;;;;;;4986694;28;20574;-65
2023/01/24 06:05:10;;;;;;;2.45;2.05;;;2.20;99.90;;;;;;4990419;28;20252;-65
2023/01/24 06:07:38;;;;;;;5.45;2.50;;;2.20;99.90;;;;;;4987105;28;20261;-65
2023/01/24 06:10:06;;;;;;;3.08;2.60;;;2.20;99.90;;;;;;4989535;28;20206;-65
2023/01/24 06:12:34;;;;;;;2.15;1.80;;;2.20;99.90;;;;;;4986634;28;20195;-65
2023/01/24 06:15:02;;;;;;;3.17;2.30;;;2.10;99.90;;;;;;4990215;28;20696;-66
2023/01/24 06:17:31;;;;;;;2.65;2.05;;;2.20;99.90;;;;;;4988637;28;20646;-66
2023/01/24 06:20:00;;;;;;;2.95;2.58;;;2.20;99.90;;;;;;4986564;28;20284;-66
2023/01/24 06:22:37;;;;;;;2.97;1.98;;;2.20;99.90;;;;;;4989383;28;20211;-67
2023/01/24 06:25:06;;;;;;;2.78;2.55;;;2.20;99.90;;;;;;4992065;28;20202;-66
2023/01/24 06:27:34;;;;;;;5.18;3.60;;;2.20;99.90;;;;;;4989214;28;20308;-66
2023/01/24 06:30:03;;;;;;;2.25;2.05;;;2.20;99.90;;;;;;4990747;28;20569;-66
2023/01/24 06:32:41;;;;;;;3.55;2.13;;;2.20;99.90;;;;;;4986276;28;20241;-66
2023/01/24 06:35:18;;;;;;;2.10;1.90;;;2.20;99.90;;;;;;4992725;28;20230;-65
2023/01/24 06:37:47;;;;;;;2.33;1.80;;;2.20;99.90;;;;;;4987746;28;20293;-65
2023/01/24 06:40:17;;;;;;;6.00;3.30;;;2.20;99.90;;;;;;4989985;28;20734;-65
2023/01/24 06:42:46;;;;;;;4.22;2.67;;;2.30;99.90;;;;;;4984692;28;20208;-66
2023/01/24 06:45:14;;;;;;;5.93;3.42;;;2.20;99.90;;;;;;4971585;28;20576;-65
2023/01/24 06:47:44;;;;;;;3.15;2.00;;;2.30;99.90;;;;;;4986649;28;20234;-65
2023/01/24 06:50:15;;;;;;;3.08;2.08;;;2.20;99.90;;;;;;4994751;28;20237;-66
2023/01/24 06:52:46;;;;;;;1.65;1.55;;;2.20;99.90;;;;;;4985502;28;20204;-66
2023/01/24 06:55:15;;;;;;;4.20;3.75;;;2.20;99.90;;;;;;4985988;28;20210;-65
2023/01/24 06:57:43;;;;;;;3.08;2.78;;;2.20;99.90;;;;;;4987320;28;20301;-64
2023/01/24 07:00:12;;;;;;;6.38;3.75;;;2.20;99.90;;;;;;4994870;28;20202;-65
2023/01/24 07:02:40;;;;;;;3.28;2.25;;;2.20;99.90;;;;;;4991055;28;20200;-65
2023/01/24 07:05:10;;;;;;;2.97;2.78;;;2.20;99.90;;;;;;4993705;28;20225;-65
2023/01/24 07:07:38;;;;;;;3.35;2.47;;;2.20;99.90;;;;;;4987629;28;20312;-65
2023/01/24 07:10:07;;;;;;;3.40;2.65;;;2.30;99.90;;;;;;4986389;28;20213;-65
2023/01/24 07:12:35;;;;;;;3.58;3.03;;;2.30;99.90;;;;;;4990290;28;20285;-65
2023/01/24 07:15:03;;;;;;;1.70;1.60;;;2.20;99.90;;;;;;4989099;28;20198;-66
2023/01/24 07:17:32;;;;;;;4.00;2.67;;;2.30;99.90;;;;;;4985036;28;20727;-65
2023/01/24 07:20:00;;;;;;;4.00;3.20;;;2.30;99.90;;;;;;4989100;28;20347;-66
2023/01/24 07:22:30;;;;;;;4.40;2.00;;;2.30;99.90;;;;;;4991115;28;20268;-65
2023/01/24 07:24:58;;;;;;;3.40;2.40;;;2.30;99.90;;;;;;4993174;28;20284;-65
2023/01/24 07:27:27;;;;;;;2.40;2.20;;;2.30;99.90;;;;;;4982261;28;20297;-66
2023/01/24 07:29:55;;;;;;;3.25;2.95;;;2.30;99.90;;;;;;4993284;28;20202;-66
2023/01/24 07:32:22;;;;;;;4.07;3.45;;;2.30;99.90;;;;;;4992566;28;20293;-65
2023/01/24 07:34:50;;;;;;;3.30;2.90;;;2.30;99.90;;;;;;4992796;28;20257;-65
2023/01/24 07:37:21;;;;;;;3.22;2.90;;;2.40;99.90;;;;;;5020761;22;20320;-63
2023/01/24 07:39:50;;;;;;;2.35;2.17;;;2.40;99.90;;;;;;5002861;28;20208;-63
2023/01/24 07:42:18;;;;;;;3.58;3.28;;;2.40;99.90;;;;;;5011835;28;20780;-63
2023/01/24 07:44:46;;;;;;;3.47;2.45;;;2.40;99.90;;;;;;5011690;28;20249;-63
2023/01/24 07:47:14;;;;;;;3.75;2.97;;;2.40;99.90;;;;;;5011356;28;20240;-63
2023/01/24 07:49:42;;;;;;;4.43;2.70;;;2.40;99.90;;;;;;5010630;28;20197;-63
2023/01/24 07:52:10;;;;;;;3.05;2.75;;;2.40;99.90;;;;;;5011660;28;20225;-63
2023/01/24 07:54:37;;;;;;;4.07;3.53;;;2.40;99.90;;;;;;5009908;28;20661;-63
2023/01/24 07:57:07;;;;;;;3.67;2.65;;;2.40;99.90;;;;;;4993597;28;20349;-63
2023/01/24 07:59:35;;;;;;;3.22;2.22;;;2.40;99.90;;;;;;4991109;28;20198;-63
2023/01/24 08:02:06;;;;;;;3.45;2.60;;;2.40;99.90;;;;;;5010631;28;20689;-63
2023/01/24 08:04:34;;;;;;;3.88;3.05;;;2.40;99.90;;;;;;5010912;28;20541;-63
2023/01/24 08:07:17;;;;;;;4.22;2.95;;;2.40;99.90;;;;;;5010947;28;20224;-63
2023/01/24 08:09:46;;;;;;;2.95;2.65;;;2.40;99.90;;;;;;5002476;28;20207;-63
2023/01/24 08:12:15;;;;;;;3.45;2.67;;;2.40;99.90;;;;;;4991799;28;20193;-63
2023/01/24 08:14:44;;;;;;;3.97;2.60;;;2.40;99.90;;;;;;4991497;28;20637;-62
2023/01/24 08:17:11;;;;;;;2.83;2.33;;;2.50;99.90;;;;;;4991431;28;20690;-63
2023/01/24 08:19:39;;;;;;;2.72;2.30;;;2.50;99.90;;;;;;4997807;28;20289;-63
2023/01/24 08:22:23;;;;;;;3.25;2.60;;;2.50;99.90;;;;;;5011406;28;20198;-63
2023/01/24 08:24:51;;;;;;;3.58;2.22;;;2.50;99.90;;;;;;5011056;28;20191;-63
2023/01/24 08:27:20;;;;;;;4.13;2.50;;;2.50;99.90;;;;;;5011037;28;20313;-63
2023/01/24 08:29:47;;;;;;;2.80;2.00;;;2.50;99.90;;;;;;5009868;28;20212;-64
2023/01/24 08:32:15;;;;;;;5.43;3.15;;;2.60;99.90;;;;;;5013525;28;20268;-64
2023/01/24 08:34:43;;;;;;;4.18;2.58;;;2.60;99.90;;;;;;5014790;28;20225;-63
2023/01/24 08:37:11;;;;;;;2.80;2.35;;;2.60;99.90;;;;;;5014658;28;20563;-63
2023/01/24 08:39:39;;;;;;;2.70;2.15;;;2.60;99.90;;;;;;5008204;28;20292;-63
2023/01/24 08:42:07;;;;;;;3.40;2.63;;;2.60;99.90;;;;;;4995277;28;20720;-63
2023/01/24 08:44:36;;;;;;;4.00;2.72;;;2.60;99.90;;;;;;4995400;28;20292;-64
2023/01/24 08:47:04;;;;;;;6.57;3.22;;;2.60;99.90;;;;;;4995311;28;20195;-64
2023/01/24 08:49:31;;;;;;;5.03;2.80;;;2.60;99.90;;;;;;4995074;28;20569;-63
2023/01/24 08:51:59;;;;;;;6.13;2.97;;;2.60;99.90;;;;;;4994993;28;20203;-63
2023/01/24 08:54:28;;;;;;;3.20;2.90;;;2.60;99.90;;;;;;4995349;28;20206;-63
2023/01/24 08:56:56;;;;;;;3.47;2.72;;;2.60;99.90;;;;;;4995149;28;20226;-63
2023/01/24 08:59:24;;;;;;;3.22;2.58;;;2.60;99.90;;;;;;4995157;28;20285;-63
2023/01/24 09:01:53;;;;;;;3.20;2.42;;;2.70;99.90;;;;;;5010032;28;20282;-63
2023/01/24 09:04:21;;;;;;;3.75;3.00;;;2.70;99.90;;;;;;5014123;28;20253;-63
2023/01/24 09:06:51;;;;;;;3.30;2.15;;;2.70;99.90;;;;;;5014583;28;20293;-64
2023/01/24 09:09:20;;;;;;;3.92;2.80;;;2.70;99.90;;;;;;5013713;28;20612;-63
2023/01/24 09:11:48;;;;;;;3.92;2.30;;;2.70;99.90;;;;;;5013916;28;20281;-64
2023/01/24 09:14:16;;;;;;;4.05;3.05;;;2.70;99.90;;;;;;5014300;28;20229;-63
2023/01/24 09:16:43;;;;;;;3.38;2.28;;;2.70;99.90;;;;;;5014279;28;20195;-63
2023/01/24 09:19:13;;;;;;;2.78;2.40;;;2.70;99.90;;;;;;5013216;28;20782;-64
2023/01/24 09:21:41;;;;;;;3.40;1.95;;;2.70;99.90;;;;;;4997415;28;20281;-64
2023/01/24 09:24:09;;;;;;;2.42;2.20;;;2.80;99.90;;;;;;5014026;28;20280;-65
2023/01/24 09:26:36;;;;;;;4.00;3.35;;;2.80;99.90;;;;;;5014096;28;20664;-63
2023/01/24 09:29:05;;;;;;;2.90;2.70;;;2.80;99.90;;;;;;5013927;28;20226;-63
2023/01/24 09:31:33;;;;;;;4.43;2.13;;;2.80;99.90;;;;;;5007208;28;20275;-63
2023/01/24 09:34:01;;;;;;;3.47;3.08;;;2.80;99.90;;;;;;5013788;28;20204;-64
2023/01/24 09:36:30;;;;;;;3.25;2.97;;;2.80;99.90;;;;;;5014144;28;20201;-64
2023/01/24 09:38:58;;;;;;;3.08;2.47;;;2.80;99.90;;;;;;5013693;28;20322;-63
2023/01/24 09:41:45;;;;;;;2.17;1.98;;;2.80;99.90;;;;;;5009871;28;20291;-64
2023/01/24 09:44:22;;;;;;;5.78;3.85;;;2.80;99.90;;;;;;4993355;28;20193;-64
2023/01/24 09:46:53;;;;;;;2.50;2.30;;;2.80;99.90;;;;;;4994213;28;20201;-63
2023/01/24 09:49:31;;;;;;;5.93;3.20;;;2.90;99.90;;;;;;4993832;28;20218;-63
2023/01/24 09:52:02;;;;;;;3.35;2.13;;;2.90;99.90;;;;;;4994222;28;20194;-63
2023/01/24 09:54:36;;;;;;;2.50;2.30;;;2.90;99.90;;;;;;4993854;28;20213;-63
2023/01/24 09:57:20;;;;;;;2.22;2.03;;;2.80;99.90;;;;;;4994280;28;20201;-63
2023/01/24 09:59:52;;;;;;;2.95;2.53;;;2.80;99.90;;;;;;4996353;28;20285;-63
2023/01/24 10:02:22;;;;;;;2.92;2.08;;;2.80;99.90;;;;;;5018602;28;20233;-64
2023/01/24 10:04:50;;;;;;;2.65;2.08;;;2.80;99.90;;;;;;5012974;28;20201;-63
2023/01/24 10:07:50;;;;;;;2.00;1.55;;;2.80;99.90;;;;;;5012887;28;20221;-63
2023/01/24 10:10:35;;;;;;;3.53;3.00;;;2.80;99.90;;;;;;5011124;28;20220;-64
2023/01/24 10:13:15;;;;;;;2.60;2.15;;;2.80;99.90;;;;;;5013795;28;20332;-63
2023/01/24 10:15:49;;;;;;;3.33;2.53;;;2.80;99.90;;;;;;5012983;28;20649;-64
2023/01/24 10:18:42;;;;;;;3.13;2.85;;;2.90;99.90;;;;;;5012944;28;20297;-63
2023/01/24 10:21:43;;;;;;;3.13;2.05;;;2.90;99.90;;;;;;5011995;28;20201;-63
2023/01/24 10:24:18;;;;;;;2.88;2.33;;;2.90;99.90;;;;;;5013212;28;20563;-64
2023/01/24 10:26:49;;;;;;;2.55;1.92;;;2.90;99.90;;;;;;5013023;28;20206;-64
2023/01/24 10:29:20;;;;;;;2.13;1.90;;;2.90;99.90;;;;;;5011532;28;20241;-63
2023/01/24 10:31:57;;;;;;;2.22;1.73;;;2.90;99.90;;;;;;5007873;28;20293;-63
2023/01/24 10:34:31;;;;;;;2.90;2.28;;;3.00;99.90;;;;;;5012831;28;20281;-63
2023/01/24 10:37:02;;;;;;;5.28;3.83;;;2.90;99.90;;;;;;5012885;28;20643;-63
2023/01/24 10:39:31;;;;;;;2.33;2.10;;;2.90;99.90;;;;;;5011750;28;20203;-62
2023/01/24 10:41:59;;;;;;;3.97;2.20;;;3.00;99.90;;;;;;5012671;28;20281;-63
2023/01/24 10:44:29;;;;;;;1.92;1.80;;;3.00;99.90;;;;;;5012622;28;20203;-63
2023/01/24 10:47:39;;;;;;;1.90;1.80;;;3.00;99.90;;;;;;5012828;28;20197;-64
2023/01/24 10:50:10;;;;;;;3.17;2.42;;;2.90;99.90;;;;;;5004423;28;20217;-63
2023/01/24 10:52:38;;;;;;;4.80;3.53;;;2.90;99.90;;;;;;4993281;28;20696;-63
2023/01/24 10:55:28;;;;;;;2.95;2.25;;;2.90;99.90;;;;;;4991734;28;20698;-64
2023/01/24 10:57:56;;;;;;;3.75;2.95;;;2.90;99.90;;;;;;4992924;28;20722;-63
2023/01/24 11:00:30;;;;;;;4.93;2.67;;;2.90;99.90;;;;;;4992487;28;20277;-64
2023/01/24 11:03:01;;;;;;;6.05;3.70;;;3.00;99.90;;;;;;5017364;28;20200;-63
2023/01/24 11:05:38;;;;;;;1.73;1.63;;;3.00;99.90;;;;;;5011883;28;20226;-64
2023/01/24 11:08:16;;;;;;;1.83;1.52;;;2.90;99.90;;;;;;5012135;28;20300;-63
2023/01/24 11:10:45;;;;;;;2.40;1.88;;;2.90;99.90;;;;;;5011189;28;20313;-63
2023/01/24 11:13:37;;;;;;;3.10;2.17;;;2.90;99.90;;;;;;5012075;28;20575;-64
2023/01/24 11:16:08;;;;;;;2.30;1.90;;;3.00;99.90;;;;;;4997562;28;20203;-64
2023/01/24 11:18:37;;;;;;;1.55;1.25;;;3.00;99.90;;;;;;5012063;28;20717;-64
2023/01/24 11:21:10;;;;;;;3.30;2.15;;;2.90;99.90;;;;;;4997694;28;20266;-63
2023/01/24 11:23:39;;;;;;;2.40;2.03;;;3.00;99.90;;;;;;4992531;28;20203;-64
2023/01/24 11:26:22;;;;;;;3.30;1.80;;;2.90;99.90;;;;;;4992231;28;20289;-63
2023/01/24 11:28:58;;;;;;;4.38;2.63;;;3.00;99.90;;;;;;4992467;28;20226;-64
2023/01/24 11:31:31;;;;;;;2.70;2.50;;;3.00;99.90;;;;;;5003972;28;20294;-64
2023/01/24 11:34:24;;;;;;;2.35;1.83;;;3.00;99.90;;;;;;5011633;28;20207;-63
2023/01/24 11:37:04;;;;;;;4.80;2.78;;;3.00;99.90;;;;;;5011668;28;20304;-64
2023/01/24 11:39:41;;;;;;;3.55;2.13;;;3.00;99.90;;;;;;5011388;28;20201;-62
2023/01/24 11:42:21;;;;;;;2.58;1.77;;;3.00;99.90;;;;;;4992118;28;20203;-64
2023/01/24 11:45:15;;;;;;;2.58;2.22;;;3.00;99.90;;;;;;4992137;28;20515;-64
2023/01/24 11:47:53;;;;;;;2.20;1.73;;;3.00;99.90;;;;;;4991976;28;20226;-64
2023/01/24 11:50:30;;;;;;;2.20;1.83;;;3.00;99.90;;;;;;5004674;28;20221;-63
2023/01/24 11:53:25;;;;;;;2.28;1.98;;;2.90;99.90;;;;;;5006114;28;20293;-63
2023/01/24 11:56:00;;;;;;;3.78;2.70;;;3.00;99.90;;;;;;5011672;28;20292;-64
2023/01/24 11:58:41;;;;;;;2.15;1.75;;;3.10;99.90;;;;;;5007863;28;20320;-64
2023/01/24 12:01:18;;;;;;;2.25;1.75;;;3.20;99.90;;;;;;5010452;28;20566;-64
2023/01/24 12:04:20;;;;;;;2.40;2.20;;;3.10;99.90;;;;;;5003358;28;20639;-63
2023/01/24 12:06:57;;;;;;;4.68;2.83;;;3.20;99.90;;;;;;5010349;28;20227;-64
2023/01/24 12:09:27;;;;;;;3.45;1.95;;;3.10;99.90;;;;;;5011298;28;20221;-63
2023/01/24 12:12:06;;;;;;;1.92;1.70;;;3.20;99.90;;;;;;5011194;28;20207;-64
2023/01/24 12:15:11;;;;;;;2.03;1.83;;;3.20;99.90;;;;;;5010750;28;20235;-63
2023/01/24 12:17:54;;;;;;;4.78;2.55;;;3.20;99.90;;;;;;4991985;28;20560;-64
2023/01/24 12:20:32;;;;;;;2.10;1.80;;;3.10;99.90;;;;;;4991242;28;20734;-63
2023/01/24 12:23:11;;;;;;;2.70;2.05;;;3.20;99.90;;;;;;4991720;28;20207;-64
2023/01/24 12:25:44;;;;;;;4.25;2.25;;;3.20;99.90;;;;;;4991639;28;20269;-63
2023/01/24 12:28:17;;;;;;;2.47;2.20;;;3.20;99.90;;;;;;4991548;28;20304;-64
2023/01/24 12:30:51;;;;;;;3.38;2.40;;;3.20;99.90;;;;;;4993812;28;20317;-64
2023/01/24 12:33:25;;;;;;;3.03;1.63;;;3.20;99.90;;;;;;5013565;28;20887;-64
2023/01/24 12:35:58;;;;;;;2.50;2.30;;;3.30;99.90;;;;;;5010382;28;20190;-64
2023/01/24 12:38:32;;;;;;;2.17;1.92;;;3.20;99.90;;;;;;5010866;28;20279;-64
2023/01/24 12:41:07;;;;;;;2.15;1.60;;;3.20;99.90;;;;;;5010411;28;20356;-64
2023/01/24 12:43:47;;;;;;;2.05;1.70;;;3.20;99.90;;;;;;5011095;28;20285;-64
2023/01/24 12:46:23;;;;;;;3.40;2.30;;;3.20;99.90;;;;;;5010902;28;20201;-64
2023/01/24 12:48:59;;;;;;;2.60;2.10;;;3.20;99.90;;;;;;5010809;28;20217;-63
2023/01/24 12:51:44;;;;;;;2.60;2.20;;;3.20;99.90;;;;;;4994176;28;20230;-63
2023/01/24 12:54:15;;;;;;;2.03;1.52;;;3.20;99.90;;;;;;5011209;28;20209;-63
2023/01/24 12:56:56;;;;;;;3.60;1.90;;;3.20;99.90;;;;;;5011021;28;20281;-63
2023/01/24 12:59:27;;;;;;;2.20;2.00;;;3.20;99.90;;;;;;5011023;28;20190;-63
2023/01/24 13:02:24;;;;;;;2.28;1.95;;;3.20;99.90;;;;;;5015623;28;20631;-63
2023/01/24 13:04:58;;;;;;;2.55;2.35;;;3.20;99.90;;;;;;5004492;28;20297;-64
2023/01/24 13:07:38;;;;;;;2.67;1.50;;;3.20;99.90;;;;;;5009942;28;20221;-64
2023/01/24 13:10:15;;;;;;;4.00;2.05;;;3.10;99.90;;;;;;5010198;28;20317;-63
2023/01/24 13:12:45;;;;;;;1.92;1.60;;;3.20;99.90;;;;;;5010860;28;20288;-63
2023/01/24 13:15:19;;;;;;;2.97;2.22;;;3.20;99.90;;;;;;5010988;28;20288;-64
2023/01/24 13:18:03;;;;;;;2.92;2.72;;;3.20;99.90;;;;;;5010600;28;20577;-63
2023/01/24 13:20:55;;;;;;;2.28;1.55;;;3.20;99.90;;;;;;5013634;28;20194;-64
2023/01/24 13:23:34;;;;;;;1.50;1.40;;;3.20;99.90;;;;;;5000117;28;20289;-64
2023/01/24 13:26:28;;;;;;;2.05;1.60;;;3.30;99.90;;;;;;4994566;28;20626;-63
2023/01/24 13:29:11;;;;;;;1.75;1.60;;;3.20;99.90;;;;;;4994615;28;20304;-64
2023/01/24 13:31:51;;;;;;;1.30;1.20;;;3.20;99.90;;;;;;5007835;28;20495;-64
2023/01/24 13:34:29;;;;;;;2.20;1.55;;;3.20;99.90;;;;;;5013669;28;20225;-64
2023/01/24 13:36:57;;;;;;;1.30;1.20;;;3.20;99.90;;;;;;5013847;28;20289;-64
2023/01/24 13:39:31;;;;;;;2.28;1.95;;;3.20;99.90;;;;;;5028808;22;20235;-75
2023/01/24 13:42:06;;;;;;;1.60;1.50;;;3.20;99.90;;;;;;5008448;28;20462;-74
2023/01/24 13:44:35;;;;;;;1.75;1.35;;;3.30;99.90;;;;;;5014132;28;20301;-74
2023/01/24 13:47:35;;;;;;;2.55;2.20;;;3.30;99.90;;;;;;5013414;28;20201;-75
2023/01/24 13:50:19;;;;;;;2.20;1.75;;;3.30;99.90;;;;;;4993193;28;20289;-74
2023/01/24 13:52:48;;;;;;;2.03;1.40;;;3.30;99.90;;;;;;4993903;28;20679;-74
2023/01/24 13:55:56;;;;;;;2.65;2.30;;;3.30;99.90;;;;;;4994436;28;20587;-75
2023/01/24 13:58:25;;;;;;;3.30;2.40;;;3.30;99.90;;;;;;4993962;28;20224;-74